Time;durP1;ratioP1;P1;durP2;ratioP2;P2;SDS_P1;SDS_P2;PMS_P1;PMS_P2;Temp;Humidity;BMP_temperature;BMP_pressure;BME280_temperature;BME280_humidity;BME280_pressure;Samples;Min_cycle;Max_cycle;Signal;HPM_P1;HPM_P2
2022/07/10 00:01:27;;;;;;;8.85;1.85;;;13.80;79.20;;;;;;5037970;28;20037;-80
2022/07/10 00:03:54;;;;;;;5.50;1.42;;;13.60;80.00;;;;;;5052193;28;20403;-79
2022/07/10 00:06:19;;;;;;;7.22;1.70;;;13.60;82.90;;;;;;5053111;28;20025;-80
2022/07/10 00:08:45;;;;;;;9.57;1.42;;;13.90;89.00;;;;;;5056151;28;20055;-80
2022/07/10 00:11:11;;;;;;;6.10;1.42;;;13.70;92.50;;;;;;5043987;28;20032;-79
2022/07/10 00:13:37;;;;;;;6.10;1.10;;;13.70;93.20;;;;;;5029568;28;20162;-79
2022/07/10 00:16:03;;;;;;;8.88;1.20;;;13.60;90.30;;;;;;5028593;28;20067;-79
2022/07/10 00:18:28;;;;;;;5.07;1.38;;;13.60;85.70;;;;;;5051331;28;20388;-79
2022/07/10 00:20:54;;;;;;;11.57;1.83;;;13.80;90.20;;;;;;5038675;28;20044;-79
2022/07/10 00:23:20;;;;;;;7.35;1.45;;;13.50;85.50;;;;;;5054506;28;20029;-79
2022/07/10 00:25:45;;;;;;;6.18;1.55;;;13.80;84.00;;;;;;5055101;28;20147;-79
2022/07/10 00:28:11;;;;;;;7.00;1.55;;;14.00;85.60;;;;;;5056642;28;20040;-79
2022/07/10 00:30:37;;;;;;;5.50;1.42;;;14.00;85.70;;;;;;5026355;28;20033;-79
2022/07/10 00:33:03;;;;;;;6.22;1.70;;;14.10;84.90;;;;;;5044116;28;20036;-79
2022/07/10 00:35:29;;;;;;;4.32;1.45;;;14.20;85.10;;;;;;5057561;28;20032;-79
2022/07/10 00:37:54;;;;;;;4.13;1.23;;;14.00;85.50;;;;;;5009802;28;20044;-79
2022/07/10 00:40:20;;;;;;;5.55;1.27;;;14.10;87.00;;;;;;5054630;28;20054;-79
2022/07/10 00:42:46;;;;;;;4.18;1.70;;;14.20;87.80;;;;;;5056098;28;20396;-79
2022/07/10 00:45:11;;;;;;;3.50;1.25;;;13.90;84.50;;;;;;5040924;28;20101;-79
2022/07/10 00:47:37;;;;;;;7.30;1.73;;;14.50;85.60;;;;;;5016217;28;20047;-79
2022/07/10 00:50:04;;;;;;;6.82;1.48;;;14.10;92.50;;;;;;5014321;28;20025;-79
2022/07/10 00:52:29;;;;;;;4.43;1.52;;;14.20;88.30;;;;;;5060168;28;20043;-79
2022/07/10 00:54:55;;;;;;;4.15;1.85;;;14.40;89.30;;;;;;5034444;28;20025;-79
2022/07/10 00:57:20;;;;;;;5.13;1.30;;;14.30;84.90;;;;;;5056507;28;20044;-79
2022/07/10 00:59:47;;;;;;;7.90;1.50;;;14.30;85.30;;;;;;5044026;28;20032;-79
2022/07/10 01:02:13;;;;;;;4.47;1.30;;;14.50;90.00;;;;;;5055095;28;20035;-79
2022/07/10 01:04:38;;;;;;;4.30;1.65;;;14.60;92.00;;;;;;5030980;28;20055;-79
2022/07/10 01:07:08;;;;;;;5.15;1.10;;;14.40;84.50;;;;;;5026405;28;20029;-78
2022/07/10 01:09:49;;;;;;;4.45;2.00;;;14.40;83.30;;;;;;5036532;28;20049;-78
2022/07/10 01:12:15;;;;;;;6.63;1.70;;;14.60;82.30;;;;;;5031711;28;20077;-79
2022/07/10 01:14:40;;;;;;;2.80;1.02;;;14.40;85.50;;;;;;5042135;28;20025;-79
2022/07/10 01:17:07;;;;;;;6.55;1.85;;;14.40;84.50;;;;;;5038292;28;20025;-79
2022/07/10 01:19:33;;;;;;;5.78;1.65;;;14.40;82.90;;;;;;5057636;28;20509;-79
2022/07/10 01:21:58;;;;;;;4.63;1.38;;;14.30;83.20;;;;;;5022041;28;20075;-79
2022/07/10 01:24:24;;;;;;;6.68;1.52;;;14.30;83.70;;;;;;5055922;28;20025;-78
2022/07/10 01:26:49;;;;;;;4.30;1.38;;;14.50;83.20;;;;;;5026868;28;20226;-78
2022/07/10 01:29:15;;;;;;;3.53;1.23;;;14.40;84.00;;;;;;5050999;28;20036;-79
2022/07/10 01:31:41;;;;;;;4.75;1.60;;;14.50;83.00;;;;;;5042925;28;20070;-79
2022/07/10 01:34:08;;;;;;;4.78;1.95;;;14.40;85.20;;;;;;5038863;28;20380;-79
2022/07/10 01:36:33;;;;;;;4.35;1.38;;;14.50;83.10;;;;;;5054494;28;20025;-79
2022/07/10 01:38:59;;;;;;;6.40;1.58;;;14.50;83.50;;;;;;5011432;28;20046;-79
2022/07/10 01:41:25;;;;;;;5.88;1.20;;;14.50;84.20;;;;;;5039881;28;20550;-79
2022/07/10 01:43:50;;;;;;;9.00;2.35;;;14.50;84.70;;;;;;5053427;28;20116;-79
2022/07/10 01:46:16;;;;;;;7.70;1.70;;;14.50;84.40;;;;;;5044330;28;20125;-79
2022/07/10 01:48:42;;;;;;;3.88;1.27;;;14.40;86.40;;;;;;5057504;28;20123;-79
2022/07/10 01:51:08;;;;;;;6.40;1.40;;;14.40;85.10;;;;;;5064297;28;20040;-79
2022/07/10 01:53:34;;;;;;;7.47;1.40;;;14.40;86.10;;;;;;5046080;28;20057;-79
2022/07/10 01:56:10;;;;;;;2.38;1.30;;;14.30;84.70;;;;;;5030987;28;20109;-79
2022/07/10 01:58:36;;;;;;;2.80;1.13;;;14.40;86.20;;;;;;5047308;28;20028;-79
2022/07/10 02:01:02;;;;;;;8.95;1.70;;;14.40;86.50;;;;;;5018310;28;20067;-79
2022/07/10 02:06:12;;;;;;;7.95;1.23;;;14.50;84.80;;;;;;5058577;28;20270;-79
2022/07/10 02:08:37;;;;;;;7.93;1.63;;;14.50;84.80;;;;;;5032278;28;20020;-79
2022/07/10 02:11:03;;;;;;;5.20;1.50;;;14.60;84.50;;;;;;5061089;28;20029;-79
2022/07/10 02:13:29;;;;;;;4.30;1.20;;;14.40;84.30;;;;;;5058737;28;20059;-79
2022/07/10 02:15:55;;;;;;;8.38;0.85;;;14.40;84.20;;;;;;5015916;28;20032;-79
2022/07/10 02:18:21;;;;;;;5.15;1.20;;;14.30;85.30;;;;;;5045958;28;20512;-79
2022/07/10 02:20:46;;;;;;;8.60;1.27;;;14.20;86.00;;;;;;5054790;28;20547;-79
2022/07/10 02:23:12;;;;;;;3.70;1.15;;;14.30;85.80;;;;;;5015843;28;20327;-79
2022/07/10 02:25:38;;;;;;;8.57;1.38;;;14.20;85.20;;;;;;5040541;28;20029;-79
2022/07/10 02:28:04;;;;;;;8.35;1.35;;;14.30;87.70;;;;;;5011759;28;20021;-79
2022/07/10 02:30:29;;;;;;;3.45;1.10;;;14.30;84.80;;;;;;5044503;28;20029;-79
2022/07/10 02:32:55;;;;;;;5.53;1.48;;;14.30;85.60;;;;;;5035636;28;20243;-79
2022/07/10 02:35:21;;;;;;;4.22;1.00;;;14.30;85.10;;;;;;5057928;28;20028;-79
2022/07/10 02:37:46;;;;;;;7.72;1.20;;;14.20;84.10;;;;;;5056314;28;20376;-79
2022/07/10 02:40:12;;;;;;;6.00;1.75;;;14.00;85.30;;;;;;5051914;28;20056;-79
2022/07/10 02:42:37;;;;;;;8.43;1.48;;;14.00;86.30;;;;;;5012587;28;20109;-79
2022/07/10 02:45:04;;;;;;;5.75;1.50;;;13.80;87.20;;;;;;5046852;28;20352;-79
2022/07/10 02:47:29;;;;;;;7.53;1.48;;;13.90;87.30;;;;;;5042634;28;20063;-79
2022/07/10 02:49:56;;;;;;;7.32;2.33;;;13.90;89.00;;;;;;5009176;28;20049;-80
2022/07/10 02:52:21;;;;;;;7.25;2.33;;;13.80;87.80;;;;;;5059839;28;20207;-79
2022/07/10 02:54:47;;;;;;;8.65;1.92;;;13.80;89.30;;;;;;5038873;28;20583;-79
2022/07/10 02:57:13;;;;;;;5.93;1.30;;;13.70;88.40;;;;;;5054638;28;20499;-79
2022/07/10 02:59:38;;;;;;;6.28;1.55;;;13.70;88.20;;;;;;5032053;28;20024;-79
2022/07/10 03:02:04;;;;;;;6.20;1.95;;;13.60;91.20;;;;;;5014539;28;20116;-78
2022/07/10 03:04:30;;;;;;;11.90;2.38;;;13.50;91.30;;;;;;5044653;28;20049;-79
2022/07/10 03:06:55;;;;;;;6.90;1.98;;;13.50;90.80;;;;;;5061584;28;20420;-79
2022/07/10 03:09:21;;;;;;;8.05;2.33;;;13.10;91.30;;;;;;5056889;28;20105;-79
2022/07/10 03:11:46;;;;;;;9.90;1.95;;;13.40;91.40;;;;;;5055838;28;20373;-79
2022/07/10 03:14:12;;;;;;;9.27;2.85;;;13.50;91.50;;;;;;5059227;28;20127;-79
2022/07/10 03:16:37;;;;;;;11.32;2.03;;;13.60;90.80;;;;;;5032755;28;20024;-79
2022/07/10 03:19:03;;;;;;;9.90;2.42;;;13.60;90.60;;;;;;5031510;28;20037;-79
2022/07/10 03:21:30;;;;;;;7.45;1.77;;;13.60;90.60;;;;;;5042874;28;20528;-79
2022/07/10 03:23:56;;;;;;;10.00;2.33;;;13.70;90.80;;;;;;5011430;28;20031;-79
2022/07/10 03:26:21;;;;;;;11.13;1.80;;;13.70;90.40;;;;;;5055820;28;20423;-79
2022/07/10 03:28:47;;;;;;;7.57;1.73;;;13.50;90.80;;;;;;5033675;28;20086;-79
2022/07/10 03:31:13;;;;;;;9.20;2.30;;;13.20;90.70;;;;;;5032137;28;20288;-80
2022/07/10 03:33:39;;;;;;;5.22;1.33;;;13.60;91.90;;;;;;5045489;28;20024;-79
2022/07/10 03:36:04;;;;;;;5.20;1.65;;;13.60;90.80;;;;;;5031158;28;20024;-79
2022/07/10 03:38:30;;;;;;;7.45;1.80;;;13.50;91.60;;;;;;5055791;28;20104;-79
2022/07/10 03:40:56;;;;;;;19.52;1.98;;;13.60;91.70;;;;;;5040707;28;20044;-79
2022/07/10 03:43:21;;;;;;;7.03;1.63;;;13.50;90.40;;;;;;5041521;28;20029;-79
2022/07/10 03:45:47;;;;;;;8.02;1.20;;;13.60;90.80;;;;;;5030400;28;20029;-78
2022/07/10 03:48:12;;;;;;;7.53;1.77;;;13.40;90.50;;;;;;5042926;28;20028;-79
2022/07/10 03:50:38;;;;;;;6.40;1.35;;;13.50;91.50;;;;;;5029832;28;20025;-79
2022/07/10 03:53:04;;;;;;;4.70;1.30;;;13.50;90.80;;;;;;5027410;28;20038;-79
2022/07/10 03:55:30;;;;;;;4.22;1.67;;;13.40;91.00;;;;;;5040232;28;20032;-79
2022/07/10 03:58:02;;;;;;;3.38;1.40;;;13.60;91.40;;;;;;5025349;28;20082;-79
2022/07/10 04:00:28;;;;;;;5.07;1.20;;;13.70;92.00;;;;;;5045690;28;20398;-79
2022/07/10 04:03:06;;;;;;;4.63;1.02;;;13.70;90.60;;;;;;5058755;28;20112;-79
2022/07/10 04:05:32;;;;;;;3.13;1.23;;;13.70;91.00;;;;;;5042790;28;20032;-79
2022/07/10 04:07:58;;;;;;;6.53;1.77;;;13.60;92.10;;;;;;5012267;28;20025;-79
2022/07/10 04:10:24;;;;;;;7.85;1.75;;;13.70;92.30;;;;;;5056496;28;20499;-79
2022/07/10 04:12:50;;;;;;;7.55;1.38;;;13.60;91.50;;;;;;5012306;28;20086;-79
2022/07/10 04:15:16;;;;;;;6.57;1.17;;;13.50;92.10;;;;;;5057821;28;20479;-79
2022/07/10 04:17:42;;;;;;;4.18;1.30;;;13.70;92.60;;;;;;5042038;28;20060;-79
2022/07/10 04:20:08;;;;;;;7.80;1.35;;;13.70;92.20;;;;;;5043289;28;20020;-79
2022/07/10 04:22:33;;;;;;;6.10;0.95;;;13.80;91.40;;;;;;5055453;28;20039;-79
2022/07/10 04:24:59;;;;;;;6.95;1.67;;;13.80;91.50;;;;;;5014339;28;20641;-79
2022/07/10 04:27:24;;;;;;;6.10;1.63;;;13.80;91.70;;;;;;5056441;28;20033;-79
2022/07/10 04:29:50;;;;;;;1.95;0.85;;;14.00;92.50;;;;;;5056558;28;20033;-79
2022/07/10 04:32:16;;;;;;;5.85;0.98;;;13.90;90.60;;;;;;5040165;28;20061;-79
2022/07/10 04:34:41;;;;;;;7.47;1.60;;;14.10;90.20;;;;;;5046234;28;20037;-79
2022/07/10 04:37:07;;;;;;;6.00;1.38;;;14.10;90.40;;;;;;5013606;28;20337;-79
2022/07/10 04:39:34;;;;;;;7.65;1.23;;;14.10;91.60;;;;;;5043294;28;20768;-79
2022/07/10 04:42:00;;;;;;;8.55;1.17;;;14.30;90.90;;;;;;5010277;28;20412;-79
2022/07/10 04:44:25;;;;;;;10.02;1.40;;;14.20;90.50;;;;;;5056565;28;24887;-79
2022/07/10 04:46:51;;;;;;;5.43;1.27;;;14.40;90.60;;;;;;5054771;28;20379;-79
2022/07/10 04:49:16;;;;;;;13.52;1.70;;;14.40;91.10;;;;;;5051638;28;20029;-79
2022/07/10 04:51:42;;;;;;;10.10;1.38;;;14.80;90.40;;;;;;5041134;28;20040;-79
2022/07/10 04:54:08;;;;;;;4.88;1.05;;;14.20;90.30;;;;;;5045316;28;20170;-78
2022/07/10 04:56:33;;;;;;;4.50;0.90;;;14.80;90.90;;;;;;5056181;28;20052;-78
2022/07/10 04:58:59;;;;;;;4.45;1.17;;;15.00;90.60;;;;;;5028406;28;20059;-79
2022/07/10 05:01:25;;;;;;;4.38;0.88;;;15.20;90.10;;;;;;5056245;28;20384;-79
2022/07/10 05:03:50;;;;;;;8.32;1.60;;;15.50;90.40;;;;;;5026637;28;20039;-79
2022/07/10 05:06:16;;;;;;;6.88;1.40;;;15.60;90.60;;;;;;5055378;28;20033;-79
2022/07/10 05:08:41;;;;;;;4.93;1.20;;;15.80;91.10;;;;;;5043672;28;20029;-78
2022/07/10 05:11:07;;;;;;;3.47;1.00;;;16.10;90.90;;;;;;5042331;28;20025;-78
2022/07/10 05:13:33;;;;;;;5.25;1.30;;;16.20;90.40;;;;;;5050104;28;20075;-78
2022/07/10 05:15:58;;;;;;;5.43;1.10;;;16.50;91.10;;;;;;5025606;28;20458;-79
2022/07/10 05:18:24;;;;;;;6.35;1.25;;;16.70;90.80;;;;;;5051560;28;20462;-79
2022/07/10 05:20:49;;;;;;;8.05;1.40;;;16.90;92.00;;;;;;5012218;28;20395;-79
2022/07/10 05:23:15;;;;;;;7.22;1.73;;;17.00;91.50;;;;;;5040209;28;20047;-79
2022/07/10 05:25:41;;;;;;;8.63;1.05;;;17.00;91.30;;;;;;5029623;28;20036;-79
2022/07/10 05:28:07;;;;;;;4.50;1.38;;;17.20;91.30;;;;;;5058765;28;20052;-79
2022/07/10 05:30:33;;;;;;;3.58;0.85;;;17.00;91.30;;;;;;5057180;28;20068;-79
2022/07/10 05:32:59;;;;;;;6.75;1.60;;;17.20;90.70;;;;;;5041264;28;20040;-79
2022/07/10 05:35:26;;;;;;;4.60;1.77;;;17.10;91.00;;;;;;5054846;28;20508;-78
2022/07/10 05:37:51;;;;;;;10.73;1.73;;;17.20;90.80;;;;;;5008843;28;20068;-79
2022/07/10 05:40:17;;;;;;;7.20;1.48;;;17.90;91.00;;;;;;5027076;28;20060;-79
2022/07/10 05:42:43;;;;;;;9.32;1.25;;;17.50;90.00;;;;;;5042724;28;20048;-79
2022/07/10 05:45:09;;;;;;;4.75;0.95;;;17.50;87.00;;;;;;5008553;28;20024;-78
2022/07/10 05:47:35;;;;;;;9.02;1.50;;;17.70;86.40;;;;;;5041762;28;20033;-78
2022/07/10 05:50:01;;;;;;;7.72;1.10;;;17.80;85.20;;;;;;5011360;28;20365;-79
2022/07/10 05:52:26;;;;;;;8.52;1.45;;;18.00;86.90;;;;;;5040156;28;21617;-79
2022/07/10 05:54:52;;;;;;;5.30;1.02;;;18.00;87.20;;;;;;5043562;28;20036;-78
2022/07/10 05:57:17;;;;;;;5.03;1.27;;;18.40;85.30;;;;;;5041400;28;20397;-78
2022/07/10 05:59:43;;;;;;;7.35;1.17;;;18.50;85.60;;;;;;5051338;28;20467;-78
2022/07/10 06:02:08;;;;;;;3.97;0.95;;;18.80;85.30;;;;;;5011231;28;20035;-78
2022/07/10 06:04:34;;;;;;;5.55;1.95;;;19.00;83.60;;;;;;5056226;28;20086;-78
2022/07/10 06:07:00;;;;;;;5.05;1.13;;;19.10;86.30;;;;;;5008122;28;20457;-78
2022/07/10 06:09:25;;;;;;;7.93;1.38;;;19.10;86.40;;;;;;5052634;28;20029;-78
2022/07/10 06:11:51;;;;;;;11.10;1.00;;;19.30;85.40;;;;;;5012356;28;20082;-78
2022/07/10 06:14:16;;;;;;;7.05;1.27;;;19.40;83.10;;;;;;5041330;28;20029;-79
2022/07/10 06:16:42;;;;;;;8.95;1.42;;;19.20;81.30;;;;;;5009092;28;20577;-79
2022/07/10 06:19:07;;;;;;;4.82;0.90;;;19.40;85.00;;;;;;5052405;28;20443;-79
2022/07/10 06:21:33;;;;;;;9.02;1.77;;;19.60;80.90;;;;;;5052181;28;20075;-79
2022/07/10 06:23:58;;;;;;;4.95;1.10;;;19.70;81.20;;;;;;5009479;28;20024;-79
2022/07/10 06:26:24;;;;;;;3.88;1.20;;;19.60;82.10;;;;;;5054491;28;20702;-79
2022/07/10 06:28:50;;;;;;;4.70;1.00;;;19.60;81.60;;;;;;5026712;28;20128;-79
2022/07/10 06:31:15;;;;;;;5.25;1.02;;;19.40;79.90;;;;;;5052081;28;20059;-79
2022/07/10 06:33:41;;;;;;;7.00;1.10;;;19.50;82.20;;;;;;5050145;28;20036;-79
2022/07/10 06:36:07;;;;;;;3.35;1.13;;;19.30;81.80;;;;;;5031677;28;20571;-79
2022/07/10 06:38:32;;;;;;;6.88;1.48;;;19.30;79.30;;;;;;5041163;28;20031;-79
2022/07/10 06:40:58;;;;;;;5.05;1.33;;;19.20;80.80;;;;;;5030007;28;20033;-79
2022/07/10 06:43:23;;;;;;;7.32;1.15;;;19.10;77.50;;;;;;5057836;28;20128;-79
2022/07/10 06:45:49;;;;;;;5.10;1.08;;;19.10;77.50;;;;;;5017918;28;20361;-79
2022/07/10 06:48:14;;;;;;;8.52;1.23;;;19.00;81.20;;;;;;5017172;28;20439;-79
2022/07/10 06:50:40;;;;;;;5.65;1.13;;;19.00;79.60;;;;;;5040000;28;20519;-79
2022/07/10 06:53:06;;;;;;;5.63;0.95;;;18.80;76.70;;;;;;5042881;28;20120;-79
2022/07/10 06:55:32;;;;;;;5.75;1.58;;;18.80;80.30;;;;;;5059084;28;20063;-79
2022/07/10 06:57:57;;;;;;;6.28;1.50;;;18.70;77.20;;;;;;5058869;28;20041;-79
2022/07/10 07:00:23;;;;;;;5.13;1.08;;;18.60;79.40;;;;;;5059375;28;20050;-78
2022/07/10 07:02:49;;;;;;;6.35;0.85;;;18.50;76.80;;;;;;5014386;28;20033;-79
2022/07/10 07:05:14;;;;;;;3.13;1.15;;;18.50;75.80;;;;;;5057127;28;20476;-79
2022/07/10 07:07:40;;;;;;;3.65;1.10;;;18.50;76.50;;;;;;5029492;28;20196;-79
2022/07/10 07:10:08;;;;;;;3.63;1.05;;;18.40;77.20;;;;;;5045248;28;20039;-79
2022/07/10 07:12:34;;;;;;;7.78;1.33;;;18.50;78.00;;;;;;5057010;28;20029;-79
2022/07/10 07:14:59;;;;;;;4.70;1.10;;;18.50;77.40;;;;;;5046765;28;20098;-79
2022/07/10 07:17:33;;;;;;;6.80;1.25;;;18.40;77.20;;;;;;5057763;28;20055;-80
2022/07/10 07:25:27;;;;;;;7.18;1.15;;;18.30;77.00;;;;;;5055102;28;20095;-80
2022/07/10 07:27:53;;;;;;;5.90;1.38;;;18.20;76.00;;;;;;5043291;28;20040;-81
2022/07/10 07:30:19;;;;;;;10.88;1.05;;;18.20;78.90;;;;;;5045144;28;20390;-81
2022/07/10 07:32:45;;;;;;;11.25;1.23;;;18.30;80.00;;;;;;5045533;28;20119;-80
2022/07/10 07:35:13;;;;;;;9.88;1.08;;;18.30;79.10;;;;;;5056462;28;20392;-80
2022/07/10 07:37:45;;;;;;;9.57;1.52;;;18.20;76.70;;;;;;5045455;28;20480;-79
2022/07/10 07:40:16;;;;;;;6.68;1.45;;;18.20;80.30;;;;;;5056001;28;20029;-79
2022/07/10 07:42:41;;;;;;;10.20;1.45;;;18.00;80.60;;;;;;5054965;28;20044;-79
2022/07/10 07:45:08;;;;;;;9.30;1.30;;;18.10;77.10;;;;;;5052861;28;20025;-79
2022/07/10 07:48:03;;;;;;;6.78;1.15;;;18.20;76.50;;;;;;5040285;28;20040;-79
2022/07/10 07:50:32;;;;;;;7.82;1.00;;;18.10;76.90;;;;;;5032699;28;20442;-80
2022/07/10 07:52:58;;;;;;;7.15;1.10;;;18.10;76.60;;;;;;5056718;28;20106;-79
2022/07/10 07:55:24;;;;;;;7.97;1.48;;;18.40;79.10;;;;;;5054010;28;20500;-79
2022/07/10 07:57:56;;;;;;;10.35;1.92;;;18.30;81.00;;;;;;5032188;28;20044;-79
2022/07/10 08:00:22;;;;;;;7.85;1.25;;;18.40;79.70;;;;;;5057255;28;20491;-79
2022/07/10 08:02:49;;;;;;;8.48;1.40;;;18.30;77.80;;;;;;5045622;28;20117;-82
2022/07/10 08:05:15;;;;;;;7.72;1.52;;;18.40;76.90;;;;;;5031760;28;20040;-81
2022/07/10 08:07:42;;;;;;;3.95;1.27;;;18.40;79.60;;;;;;5056737;28;20403;-81
2022/07/10 08:10:09;;;;;;;10.77;2.28;;;18.30;79.60;;;;;;5057461;28;20041;-81
2022/07/10 08:12:34;;;;;;;7.78;1.52;;;18.30;81.80;;;;;;5042575;28;20134;-81
2022/07/10 08:15:00;;;;;;;4.20;1.50;;;18.30;80.20;;;;;;5014355;28;20111;-80
2022/07/10 08:17:26;;;;;;;4.18;1.67;;;18.30;81.50;;;;;;5060906;28;20036;-80
2022/07/10 08:19:52;;;;;;;4.32;1.52;;;18.60;84.50;;;;;;5031120;28;20132;-80
2022/07/10 08:22:17;;;;;;;4.82;1.45;;;18.40;83.20;;;;;;5060878;28;20139;-82
2022/07/10 08:24:43;;;;;;;5.85;1.20;;;18.70;83.70;;;;;;5046717;28;20048;-79
2022/07/10 08:27:09;;;;;;;5.20;1.40;;;18.40;80.60;;;;;;5024553;28;20035;-81
2022/07/10 08:29:34;;;;;;;5.80;1.40;;;18.40;85.80;;;;;;5052307;28;20107;-81
2022/07/10 08:32:00;;;;;;;8.18;1.60;;;18.40;85.10;;;;;;5011677;28;20123;-81
2022/07/10 08:34:27;;;;;;;5.70;1.30;;;18.40;85.50;;;;;;5054321;28;20041;-82
2022/07/10 08:36:53;;;;;;;4.50;1.05;;;18.90;87.00;;;;;;5041462;28;20099;-82
2022/07/10 08:39:21;;;;;;;10.60;2.95;;;18.60;86.10;;;;;;5053997;28;20476;-81
2022/07/10 08:41:49;;;;;;;6.88;1.33;;;18.60;84.80;;;;;;5028316;28;20041;-81
2022/07/10 08:44:18;;;;;;;8.13;1.52;;;18.60;86.00;;;;;;5040334;28;20028;-81
2022/07/10 08:46:46;;;;;;;3.63;1.33;;;18.70;82.70;;;;;;5046383;28;20037;-82
2022/07/10 08:49:15;;;;;;;3.58;0.90;;;18.70;86.70;;;;;;5038977;28;20304;-81
2022/07/10 08:52:03;;;;;;;6.80;1.25;;;18.70;85.30;;;;;;5037333;28;20199;-81
2022/07/10 08:54:29;;;;;;;2.65;0.93;;;18.70;87.90;;;;;;5037934;28;20076;-82
2022/07/10 08:57:01;;;;;;;5.85;1.70;;;18.70;87.50;;;;;;5057536;28;20036;-82
2022/07/10 08:59:27;;;;;;;3.35;1.55;;;18.70;88.50;;;;;;5042128;28;20036;-81
2022/07/10 09:01:53;;;;;;;4.45;1.65;;;18.80;90.20;;;;;;5026270;28;20040;-82
2022/07/10 09:04:20;;;;;;;4.10;1.35;;;18.90;90.40;;;;;;5053351;28;20029;-82
2022/07/10 09:06:46;;;;;;;3.53;1.30;;;18.80;90.40;;;;;;5043438;28;20017;-82
2022/07/10 09:09:11;;;;;;;3.28;1.58;;;18.90;91.30;;;;;;5032488;28;20074;-82
2022/07/10 09:11:40;;;;;;;4.30;1.50;;;18.90;90.60;;;;;;5040998;28;20476;-81
2022/07/10 09:14:10;;;;;;;6.65;1.83;;;19.10;89.70;;;;;;5013115;28;20033;-81
2022/07/10 09:16:36;;;;;;;3.45;1.05;;;19.30;90.80;;;;;;5057286;28;20070;-82
2022/07/10 09:19:15;;;;;;;4.80;1.27;;;19.40;89.90;;;;;;5013818;28;20448;-81
2022/07/10 09:21:40;;;;;;;7.65;2.15;;;19.60;90.70;;;;;;5058305;28;20028;-82
2022/07/10 09:24:07;;;;;;;3.97;1.10;;;19.70;90.70;;;;;;5042270;28;20566;-82
2022/07/10 09:26:33;;;;;;;7.13;1.65;;;20.40;87.40;;;;;;5058250;28;20507;-81
2022/07/10 09:29:12;;;;;;;5.07;1.88;;;20.70;90.60;;;;;;5028222;28;20048;-81
2022/07/10 09:31:51;;;;;;;3.80;1.80;;;20.40;86.20;;;;;;5041003;28;20049;-81
2022/07/10 09:34:17;;;;;;;10.35;2.38;;;20.70;89.10;;;;;;5015026;28;20025;-81
2022/07/10 09:36:43;;;;;;;1.70;1.60;;;20.80;87.40;;;;;;5052694;28;20574;-81
2022/07/10 09:39:09;;;;;;;3.25;1.42;;;20.90;87.70;;;;;;5056975;28;20044;-82
2022/07/10 09:41:35;;;;;;;3.53;1.83;;;21.10;87.90;;;;;;5054445;28;20463;-81
2022/07/10 09:44:05;;;;;;;3.85;2.10;;;21.30;81.50;;;;;;5009034;28;20144;-81
2022/07/10 09:46:34;;;;;;;6.20;2.13;;;21.30;80.50;;;;;;5041105;28;20040;-81
2022/07/10 09:49:12;;;;;;;7.38;2.30;;;21.20;79.60;;;;;;5054443;28;20041;-81
2022/07/10 09:51:41;;;;;;;5.35;2.05;;;21.30;80.00;;;;;;5054123;28;20124;-81
2022/07/10 09:54:08;;;;;;;6.43;2.17;;;21.20;79.40;;;;;;5027637;28;20182;-80
2022/07/10 09:56:47;;;;;;;5.25;2.17;;;21.20;79.40;;;;;;5056208;28;20032;-80
2022/07/10 09:59:14;;;;;;;6.57;2.22;;;21.20;79.20;;;;;;5054843;28;20029;-80
2022/07/10 10:01:46;;;;;;;4.25;1.48;;;21.20;79.00;;;;;;5031383;28;20036;-80
2022/07/10 10:04:12;;;;;;;4.68;2.17;;;21.10;78.30;;;;;;5028249;28;20036;-81
2022/07/10 10:06:39;;;;;;;5.13;1.98;;;20.90;78.80;;;;;;5059966;28;20491;-81
2022/07/10 10:09:13;;;;;;;5.45;2.05;;;21.00;80.70;;;;;;5034172;28;20029;-80
2022/07/10 10:11:39;;;;;;;3.58;1.85;;;21.10;81.60;;;;;;5059295;28;20148;-81
2022/07/10 10:14:06;;;;;;;6.88;1.80;;;21.00;81.40;;;;;;5063490;28;20071;-81
2022/07/10 10:16:33;;;;;;;3.78;1.67;;;21.10;81.20;;;;;;5061031;28;20139;-81
2022/07/10 10:21:42;;;;;;;3.25;1.27;;;21.40;82.10;;;;;;5058065;28;20063;-81
2022/07/10 10:24:08;;;;;;;4.07;1.00;;;21.40;80.70;;;;;;5016454;28;20116;-81
2022/07/10 10:26:34;;;;;;;5.93;3.47;;;21.50;82.00;;;;;;5063750;28;20039;-81
2022/07/10 10:29:00;;;;;;;7.70;4.95;;;21.40;81.50;;;;;;5011753;28;20044;-81
2022/07/10 10:31:27;;;;;;;8.32;3.60;;;21.30;82.30;;;;;;5059161;28;20115;-81
2022/07/10 10:33:56;;;;;;;10.90;7.45;;;21.20;79.70;;;;;;5059147;28;20037;-81
2022/07/10 10:36:48;;;;;;;12.45;8.25;;;21.10;80.90;;;;;;5057364;28;20334;-81
2022/07/10 10:39:18;;;;;;;10.35;8.63;;;21.10;81.90;;;;;;5023598;28;20031;-81
2022/07/10 10:41:52;;;;;;;7.43;6.22;;;21.20;82.10;;;;;;5040340;28;20062;-80
2022/07/10 10:44:17;;;;;;;10.00;8.30;;;21.30;82.30;;;;;;5056117;28;20071;-81
2022/07/10 10:47:05;;;;;;;9.85;8.23;;;21.40;81.90;;;;;;5041992;28;20064;-80
2022/07/10 10:49:53;;;;;;;11.23;8.35;;;21.40;83.10;;;;;;5032815;28;20021;-81
2022/07/10 10:52:19;;;;;;;9.02;8.13;;;21.50;82.00;;;;;;5054800;28;20083;-81
2022/07/10 10:55:07;;;;;;;9.82;7.50;;;21.80;78.10;;;;;;5041478;28;20108;-81
2022/07/10 10:57:39;;;;;;;11.07;8.25;;;21.70;76.80;;;;;;5060550;28;20403;-81
2022/07/10 11:00:08;;;;;;;8.38;7.22;;;21.70;77.20;;;;;;5044404;28;20025;-81
2022/07/10 11:02:40;;;;;;;12.43;8.63;;;21.80;77.80;;;;;;5057090;28;20025;-81
2022/07/10 11:05:18;;;;;;;10.18;6.97;;;21.80;80.50;;;;;;5043227;28;20430;-81
2022/07/10 11:08:04;;;;;;;8.63;7.57;;;21.80;79.90;;;;;;5058631;28;20029;-81
2022/07/10 11:10:35;;;;;;;9.40;7.28;;;21.60;79.60;;;;;;5040504;28;20503;-81
2022/07/10 11:13:13;;;;;;;13.77;9.13;;;21.60;80.20;;;;;;4332838;28;10000736;-81
2022/07/10 11:15:46;;;;;;;9.90;7.45;;;21.80;81.10;;;;;;5037726;28;20085;-82
2022/07/10 11:18:14;;;;;;;11.20;10.10;;;21.70;79.20;;;;;;5057688;28;20120;-81
2022/07/10 11:20:53;;;;;;;9.02;8.07;;;21.90;82.40;;;;;;5042188;28;20032;-81
2022/07/10 11:23:43;;;;;;;11.40;6.82;;;22.10;82.80;;;;;;5043872;28;20443;-82
2022/07/10 11:26:35;;;;;;;7.30;6.60;;;22.30;82.90;;;;;;5052356;28;20029;-81
2022/07/10 11:29:07;;;;;;;5.75;5.25;;;22.50;84.30;;;;;;5055688;28;20510;-82
2022/07/10 11:31:37;;;;;;;7.35;6.63;;;22.60;82.90;;;;;;5057020;28;20643;-80
2022/07/10 11:34:03;;;;;;;5.88;5.20;;;22.60;82.50;;;;;;5026704;28;20041;-80
2022/07/10 11:36:30;;;;;;;6.88;4.97;;;22.60;83.80;;;;;;5043175;28;20040;-82
2022/07/10 11:38:57;;;;;;;4.18;3.88;;;22.40;82.10;;;;;;5051998;28;20094;-81
2022/07/10 11:41:24;;;;;;;4.75;3.70;;;22.60;82.30;;;;;;5057078;28;20404;-80
2022/07/10 11:43:53;;;;;;;3.97;3.67;;;22.70;82.70;;;;;;5009214;28;20033;-80
2022/07/10 11:46:21;;;;;;;2.92;2.65;;;23.10;84.20;;;;;;5052263;28;20032;-80
2022/07/10 11:48:47;;;;;;;3.78;2.78;;;23.30;84.00;;;;;;5027846;28;20127;-80
2022/07/10 11:51:39;;;;;;;3.47;2.72;;;23.40;84.10;;;;;;5056581;28;20116;-80
2022/07/10 11:54:18;;;;;;;3.67;2.50;;;23.20;84.60;;;;;;5029056;28;20051;-79
2022/07/10 11:56:53;;;;;;;4.10;1.73;;;23.00;88.40;;;;;;5007058;28;20044;-78
2022/07/10 11:59:24;;;;;;;1.77;1.52;;;22.70;89.80;;;;;;5029524;28;20040;-79
2022/07/10 12:01:50;;;;;;;3.40;1.88;;;22.30;91.20;;;;;;5042328;28;20086;-79
2022/07/10 12:04:17;;;;;;;3.05;1.58;;;22.40;91.20;;;;;;5045288;28;20033;-79
2022/07/10 12:06:47;;;;;;;2.75;1.50;;;21.80;91.80;;;;;;5055021;28;20025;-79
2022/07/10 12:09:14;;;;;;;1.60;1.50;;;21.90;93.20;;;;;;5056032;28;20090;-79
2022/07/10 12:11:40;;;;;;;1.15;1.00;;;21.90;95.50;;;;;;5043052;28;20033;-79
2022/07/10 12:14:19;;;;;;;2.00;1.30;;;21.80;94.50;;;;;;5028289;28;20537;-79
2022/07/10 12:16:45;;;;;;;1.45;1.35;;;21.60;93.60;;;;;;5036663;28;20032;-79
2022/07/10 12:19:12;;;;;;;0.80;0.80;;;21.50;93.50;;;;;;5053236;28;20404;-78
2022/07/10 12:21:43;;;;;;;1.02;0.90;;;21.30;95.90;;;;;;5043306;28;20487;-79
2022/07/10 12:24:09;;;;;;;1.17;1.10;;;20.90;96.20;;;;;;5059213;28;20594;-79
2022/07/10 12:26:55;;;;;;;1.85;1.50;;;20.90;99.10;;;;;;5056758;28;20111;-79
2022/07/10 12:29:25;;;;;;;2.35;2.00;;;20.90;98.50;;;;;;5023777;28;20503;-79
2022/07/10 12:31:52;;;;;;;1.70;1.60;;;21.10;99.90;;;;;;5038409;28;20487;-80
2022/07/10 12:34:18;;;;;;;2.25;1.38;;;21.20;98.00;;;;;;5026256;28;20036;-81
2022/07/10 12:36:49;;;;;;;3.40;2.10;;;21.80;99.90;;;;;;5030395;28;20037;-81
2022/07/10 12:39:16;;;;;;;5.05;2.50;;;22.00;99.90;;;;;;5057137;28;20115;-80
2022/07/10 12:41:58;;;;;;;3.35;1.80;;;22.00;99.90;;;;;;5042799;28;20542;-80
2022/07/10 12:44:39;;;;;;;3.75;1.88;;;21.90;99.90;;;;;;5059139;28;20041;-80
2022/07/10 12:47:12;;;;;;;7.53;1.80;;;21.60;99.90;;;;;;5057616;28;20036;-79
2022/07/10 12:50:08;;;;;;;3.08;2.17;;;21.50;99.90;;;;;;5040353;28;20040;-79
2022/07/10 12:52:34;;;;;;;3.55;2.00;;;21.40;99.90;;;;;;5012694;28;20056;-80
2022/07/10 12:55:15;;;;;;;5.18;1.88;;;21.50;99.50;;;;;;5038634;28;20024;-80
2022/07/10 12:57:52;;;;;;;2.30;1.75;;;21.60;99.00;;;;;;5054798;28;20038;-80
2022/07/10 13:00:20;;;;;;;3.33;1.73;;;22.10;99.90;;;;;;5044359;28;20069;-80